Wymer, West Virginia
Current Conditions -  °F | °C
As of 2:51 PM on Saturday 25 Oct 2014 (Local Time) from KEKN Reporting Station
Broken Clouds Broken Clouds  
Wind Chill: 63°   Ceiling: 6500
Heat Index: 63°   Visibility: 10mi
Dew Point: 44°   Wind: 12mph
Humidity: 50%   Direction: 250°WSW
Pressure: 29.93"   Gusts: 21mph
Location:  38.9499°N, 79.6438°W
Report Text: KEKN 251851Z AUTO 25010G18KT 10SM BKN065 BKN080 17/07 A2993 RMK AO2 SLP144 T01720067 TSNO
Loading
Personal Weather Stations






























Interactive Weather Map
Tropical Storm Tracking
New forecast layout! Learn more

10-Day Weather Forecast

Advertisements
Track Severe Weather on mobile